Terminal Aerodrome Forecast
Issued by NWS

Home | Current Version | Previous Version | Text Only | Print | Product List | Glossary On
Versions: 1 2 3 4 5 6 7 8 9 10 11 12 13 14 15 16 17 18 19 20 21 22 23 24 25 26 27 28 29
000
FTUS43 KMKX 141723
TAFUES
TAF
KUES 141723Z 1418/1518 28006KT P6SM SKC
     FM142100 28006KT P6SM FEW250
     FM150400 23006KT P6SM VCSH OVC090
     FM150500 24006KT P6SM OVC080
     FM150700 24007KT P6SM OVC030
     FM151000 27009KT P6SM BKN035
     FM151500 28012KT P6SM BKN025=

USA.gov is the U.S. government's official web portal to all federal, state and local government web resources and services.